Terminal Aerodrome Forecast
Issued by NWS

Home | Current Version | Previous Version | Text Only | Print | Product List | Glossary Off
Versions: 1 2 3 4 5 6 7 8 9 10 11 12 13 14 15 16 17 18 19 20 21 22 23 24 25 26 27 28 29 30 31 32 33 34

000
FTUS43 KLOT 222300
TAFMDW
TAF
KMDW 222338Z 2300/2324 08007KT P6SM SKC
     FM230300 15004KT P6SM FEW250
     FM231600 19010KT P6SM BKN250
     FM232200 20008KT P6SM -SHRA SCT025 BKN040 OVC070=

USA.gov is the U.S. government's official web portal to all federal, state and local government web resources and services.